New Strawn, Kansas
Current Conditions -  °F | °C
As of 4:01 AM on Monday 22 Dec 2014 (Local Time) from KEMP Reporting Station
Haze Haze  
Wind Chill: 36°   Ceiling: 300
Heat Index: 42°   Visibility: 3mi
Dew Point: 42°   Wind: 12mph
Humidity: 100%   Direction: 140°SE
Pressure: 29.58"   Gusts: NA
Location:  38.1931°N, 95.748°W
Report Text: KEMP 221001Z AUTO 14010KT 3SM BR OVC003 06/06 A2958 RMK AO2 T00560056
Loading
Personal Weather Stations






























Interactive Weather Map New forecast layout! Learn more

10-Day Weather Forecast

Advertisements
Track Severe Weather on mobile